sensor_id;sensor_type;location;lat;lon;timestamp;pressure;altitude;pressure_sealevel;temperature;humidity
22755;BME280;11544;42.020;23.094;2023-11-21T00:02:22;97102.59;;;7.06;100.00
22755;BME280;11544;42.020;23.094;2023-11-21T00:04:49;97103.50;;;7.40;100.00
22755;BME280;11544;42.020;23.094;2023-11-21T00:07:16;97103.44;;;7.06;100.00
22755;BME280;11544;42.020;23.094;2023-11-21T00:09:43;97101.31;;;6.46;100.00
22755;BME280;11544;42.020;23.094;2023-11-21T00:12:10;97095.34;;;6.42;100.00
22755;BME280;11544;42.020;23.094;2023-11-21T00:14:37;97101.28;;;6.05;100.00
22755;BME280;11544;42.020;23.094;2023-11-21T00:17:05;97109.25;;;5.93;100.00
22755;BME280;11544;42.020;23.094;2023-11-21T00:19:32;97110.28;;;6.29;100.00
22755;BME280;11544;42.020;23.094;2023-11-21T00:22:02;97110.63;;;6.12;100.00
22755;BME280;11544;42.020;23.094;2023-11-21T00:24:29;97108.88;;;6.13;100.00
22755;BME280;11544;42.020;23.094;2023-11-21T00:26:56;97113.59;;;5.89;100.00
22755;BME280;11544;42.020;23.094;2023-11-21T00:29:23;97113.25;;;6.09;100.00
22755;BME280;11544;42.020;23.094;2023-11-21T00:31:49;97109.56;;;6.63;100.00
22755;BME280;11544;42.020;23.094;2023-11-21T00:34:16;97107.09;;;6.58;100.00
22755;BME280;11544;42.020;23.094;2023-11-21T00:36:43;97112.03;;;6.29;100.00
22755;BME280;11544;42.020;23.094;2023-11-21T00:39:10;97119.41;;;6.02;100.00
22755;BME280;11544;42.020;23.094;2023-11-21T00:41:38;97108.34;;;5.96;100.00
22755;BME280;11544;42.020;23.094;2023-11-21T00:44:05;97099.53;;;6.06;100.00
22755;BME280;11544;42.020;23.094;2023-11-21T00:46:33;97111.84;;;6.78;100.00
22755;BME280;11544;42.020;23.094;2023-11-21T00:49:00;97112.13;;;6.23;100.00
22755;BME280;11544;42.020;23.094;2023-11-21T00:51:27;97116.38;;;6.27;100.00
22755;BME280;11544;42.020;23.094;2023-11-21T00:53:54;97113.38;;;6.05;100.00
22755;BME280;11544;42.020;23.094;2023-11-21T00:56:21;97118.50;;;6.06;100.00
22755;BME280;11544;42.020;23.094;2023-11-21T00:58:48;97128.69;;;6.14;100.00
22755;BME280;11544;42.020;23.094;2023-11-21T01:01:19;97128.78;;;6.09;100.00
22755;BME280;11544;42.020;23.094;2023-11-21T01:03:46;97125.06;;;6.23;100.00
22755;BME280;11544;42.020;23.094;2023-11-21T01:06:13;97116.88;;;6.44;100.00
22755;BME280;11544;42.020;23.094;2023-11-21T01:08:43;97115.53;;;6.26;100.00
22755;BME280;11544;42.020;23.094;2023-11-21T01:11:11;97118.81;;;6.75;100.00
22755;BME280;11544;42.020;23.094;2023-11-21T01:13:39;97104.91;;;6.81;100.00
22755;BME280;11544;42.020;23.094;2023-11-21T01:16:07;97112.56;;;6.00;100.00
22755;BME280;11544;42.020;23.094;2023-11-21T01:18:35;97114.66;;;5.79;100.00
22755;BME280;11544;42.020;23.094;2023-11-21T01:21:02;97108.38;;;6.38;100.00
22755;BME280;11544;42.020;23.094;2023-11-21T01:23:29;97105.69;;;6.42;100.00
22755;BME280;11544;42.020;23.094;2023-11-21T01:25:57;97115.34;;;5.89;100.00
22755;BME280;11544;42.020;23.094;2023-11-21T01:28:24;97117.41;;;5.68;100.00
22755;BME280;11544;42.020;23.094;2023-11-21T01:30:50;97114.84;;;5.67;100.00
22755;BME280;11544;42.020;23.094;2023-11-21T01:33:17;97115.81;;;5.61;100.00
22755;BME280;11544;42.020;23.094;2023-11-21T01:35:45;97109.66;;;5.70;100.00
22755;BME280;11544;42.020;23.094;2023-11-21T01:38:13;97108.66;;;5.77;100.00
22755;BME280;11544;42.020;23.094;2023-11-21T01:40:41;97110.41;;;5.75;100.00
22755;BME280;11544;42.020;23.094;2023-11-21T01:43:08;97101.47;;;5.94;100.00
22755;BME280;11544;42.020;23.094;2023-11-21T01:45:35;97099.25;;;5.71;100.00
22755;BME280;11544;42.020;23.094;2023-11-21T01:48:03;97097.31;;;5.84;100.00
22755;BME280;11544;42.020;23.094;2023-11-21T01:50:30;97101.28;;;6.05;100.00
22755;BME280;11544;42.020;23.094;2023-11-21T01:52:58;97101.97;;;5.65;100.00
22755;BME280;11544;42.020;23.094;2023-11-21T01:55:25;97091.00;;;6.01;100.00
22755;BME280;11544;42.020;23.094;2023-11-21T01:57:55;97089.56;;;5.83;100.00
22755;BME280;11544;42.020;23.094;2023-11-21T02:00:24;97084.09;;;5.53;100.00
22755;BME280;11544;42.020;23.094;2023-11-21T02:02:52;97082.09;;;5.67;100.00
22755;BME280;11544;42.020;23.094;2023-11-21T02:05:19;97086.78;;;5.45;100.00
22755;BME280;11544;42.020;23.094;2023-11-21T02:07:48;97074.38;;;5.66;100.00
22755;BME280;11544;42.020;23.094;2023-11-21T02:10:15;97089.03;;;5.65;100.00
22755;BME280;11544;42.020;23.094;2023-11-21T02:12:44;97083.66;;;5.76;100.00
22755;BME280;11544;42.020;23.094;2023-11-21T02:15:13;97077.78;;;5.66;100.00
22755;BME280;11544;42.020;23.094;2023-11-21T02:17:53;97086.50;;;5.62;100.00
22755;BME280;11544;42.020;23.094;2023-11-21T02:20:22;97076.72;;;5.28;100.00
22755;BME280;11544;42.020;23.094;2023-11-21T02:22:52;97072.78;;;5.57;100.00
22755;BME280;11544;42.020;23.094;2023-11-21T02:25:30;97066.59;;;5.16;100.00
22755;BME280;11544;42.020;23.094;2023-11-21T02:28:00;97071.75;;;5.67;100.00
22755;BME280;11544;42.020;23.094;2023-11-21T02:30:27;97070.66;;;5.31;100.00
22755;BME280;11544;42.020;23.094;2023-11-21T02:32:55;97068.94;;;5.81;100.00
22755;BME280;11544;42.020;23.094;2023-11-21T02:35:24;97071.06;;;5.05;100.00
22755;BME280;11544;42.020;23.094;2023-11-21T02:37:53;97064.41;;;5.44;100.00
22755;BME280;11544;42.020;23.094;2023-11-21T02:40:20;97067.88;;;5.43;100.00
22755;BME280;11544;42.020;23.094;2023-11-21T02:42:48;97059.88;;;6.46;100.00
22755;BME280;11544;42.020;23.094;2023-11-21T02:45:15;97070.41;;;5.45;100.00
22755;BME280;11544;42.020;23.094;2023-11-21T02:47:45;97062.97;;;5.26;100.00
22755;BME280;11544;42.020;23.094;2023-11-21T02:50:12;97074.16;;;5.28;100.00
22755;BME280;11544;42.020;23.094;2023-11-21T02:52:39;97074.06;;;5.35;100.00
22755;BME280;11544;42.020;23.094;2023-11-21T02:55:09;97069.09;;;5.22;100.00
22755;BME280;11544;42.020;23.094;2023-11-21T02:57:36;97064.09;;;5.12;100.00
22755;BME280;11544;42.020;23.094;2023-11-21T03:00:03;97069.94;;;5.21;100.00
22755;BME280;11544;42.020;23.094;2023-11-21T03:02:34;97072.25;;;5.40;100.00
22755;BME280;11544;42.020;23.094;2023-11-21T03:05:07;97073.44;;;5.19;100.00
22755;BME280;11544;42.020;23.094;2023-11-21T03:07:37;97067.22;;;5.32;100.00
22755;BME280;11544;42.020;23.094;2023-11-21T03:10:06;97067.28;;;5.27;100.00
22755;BME280;11544;42.020;23.094;2023-11-21T03:12:33;97067.00;;;5.44;100.00
22755;BME280;11544;42.020;23.094;2023-11-21T03:14:59;97071.69;;;5.22;100.00
22755;BME280;11544;42.020;23.094;2023-11-21T03:17:28;97059.66;;;5.20;100.00
22755;BME280;11544;42.020;23.094;2023-11-21T03:19:55;97052.59;;;5.76;100.00
22755;BME280;11544;42.020;23.094;2023-11-21T03:22:23;97054.84;;;5.48;100.00
22755;BME280;11544;42.020;23.094;2023-11-21T03:24:50;97046.16;;;5.02;100.00
22755;BME280;11544;42.020;23.094;2023-11-21T03:27:17;97052.28;;;4.95;100.00
22755;BME280;11544;42.020;23.094;2023-11-21T03:29:44;97066.88;;;4.99;100.00
22755;BME280;11544;42.020;23.094;2023-11-21T03:32:13;97064.06;;;5.13;100.00
22755;BME280;11544;42.020;23.094;2023-11-21T03:35:06;97073.91;;;5.42;100.00
22755;BME280;11544;42.020;23.094;2023-11-21T03:37:33;97074.25;;;4.66;100.00
22755;BME280;11544;42.020;23.094;2023-11-21T03:40:00;97068.81;;;5.39;100.00
22755;BME280;11544;42.020;23.094;2023-11-21T03:42:30;97076.88;;;5.19;100.00
22755;BME280;11544;42.020;23.094;2023-11-21T03:44:56;97066.06;;;4.96;100.00
22755;BME280;11544;42.020;23.094;2023-11-21T03:47:23;97068.97;;;4.74;100.00
22755;BME280;11544;42.020;23.094;2023-11-21T03:49:51;97068.19;;;4.69;100.00
22755;BME280;11544;42.020;23.094;2023-11-21T03:52:18;97058.78;;;5.21;100.00
22755;BME280;11544;42.020;23.094;2023-11-21T03:54:44;97059.75;;;5.14;100.00
22755;BME280;11544;42.020;23.094;2023-11-21T03:57:12;97072.31;;;4.79;100.00
22755;BME280;11544;42.020;23.094;2023-11-21T03:59:42;97073.34;;;4.69;100.00
22755;BME280;11544;42.020;23.094;2023-11-21T04:02:09;97080.53;;;4.47;100.00
22755;BME280;11544;42.020;23.094;2023-11-21T04:04:36;97090.16;;;4.36;100.00
22755;BME280;11544;42.020;23.094;2023-11-21T04:07:04;97091.50;;;4.63;100.00
22755;BME280;11544;42.020;23.094;2023-11-21T04:09:31;97087.47;;;5.02;100.00
22755;BME280;11544;42.020;23.094;2023-11-21T04:11:58;97090.28;;;5.43;100.00
22755;BME280;11544;42.020;23.094;2023-11-21T04:14:26;97078.00;;;5.03;100.00
22755;BME280;11544;42.020;23.094;2023-11-21T04:16:54;97087.50;;;4.39;100.00
22755;BME280;11544;42.020;23.094;2023-11-21T04:19:21;97087.81;;;4.81;100.00
22755;BME280;11544;42.020;23.094;2023-11-21T04:21:48;97082.66;;;5.34;100.00
22755;BME280;11544;42.020;23.094;2023-11-21T04:24:15;97073.78;;;4.97;100.00
22755;BME280;11544;42.020;23.094;2023-11-21T04:26:43;97073.28;;;4.72;100.00
22755;BME280;11544;42.020;23.094;2023-11-21T04:29:10;97072.47;;;5.26;100.00
22755;BME280;11544;42.020;23.094;2023-11-21T04:31:37;97074.44;;;5.61;100.00
22755;BME280;11544;42.020;23.094;2023-11-21T04:34:04;97064.91;;;5.15;100.00
22755;BME280;11544;42.020;23.094;2023-11-21T04:36:32;97069.41;;;5.55;100.00
22755;BME280;11544;42.020;23.094;2023-11-21T04:38:58;97074.81;;;4.87;100.00
22755;BME280;11544;42.020;23.094;2023-11-21T04:41:25;97062.81;;;4.84;100.00
22755;BME280;11544;42.020;23.094;2023-11-21T04:43:52;97062.16;;;4.70;100.00
22755;BME280;11544;42.020;23.094;2023-11-21T04:46:19;97066.34;;;4.77;100.00
22755;BME280;11544;42.020;23.094;2023-11-21T04:48:46;97072.31;;;4.79;100.00
22755;BME280;11544;42.020;23.094;2023-11-21T04:51:13;97069.00;;;4.71;100.00
22755;BME280;11544;42.020;23.094;2023-11-21T04:53:41;97071.16;;;4.40;100.00
22755;BME280;11544;42.020;23.094;2023-11-21T04:56:08;97080.38;;;4.58;100.00
22755;BME280;11544;42.020;23.094;2023-11-21T04:58:54;97083.06;;;4.50;100.00
22755;BME280;11544;42.020;23.094;2023-11-21T05:01:21;97081.84;;;4.77;100.00
22755;BME280;11544;42.020;23.094;2023-11-21T05:03:48;97075.38;;;4.47;100.00
22755;BME280;11544;42.020;23.094;2023-11-21T05:06:15;97073.50;;;4.58;100.00
22755;BME280;11544;42.020;23.094;2023-11-21T05:08:43;97072.31;;;4.17;100.00
22755;BME280;11544;42.020;23.094;2023-11-21T05:11:09;97075.78;;;4.15;100.00
22755;BME280;11544;42.020;23.094;2023-11-21T05:13:37;97084.34;;;4.17;100.00
22755;BME280;11544;42.020;23.094;2023-11-21T05:16:05;97083.63;;;4.07;100.00
22755;BME280;11544;42.020;23.094;2023-11-21T05:18:33;97080.97;;;4.12;100.00
22755;BME280;11544;42.020;23.094;2023-11-21T05:21:02;97082.47;;;4.30;100.00
22755;BME280;11544;42.020;23.094;2023-11-21T05:23:29;97087.38;;;4.50;100.00
22755;BME280;11544;42.020;23.094;2023-11-21T05:25:56;97072.69;;;4.53;100.00
22755;BME280;11544;42.020;23.094;2023-11-21T05:28:23;97074.78;;;4.88;100.00
22755;BME280;11544;42.020;23.094;2023-11-21T05:30:50;97069.50;;;5.47;100.00
22755;BME280;11544;42.020;23.094;2023-11-21T05:33:29;97065.97;;;5.02;100.00
22755;BME280;11544;42.020;23.094;2023-11-21T05:35:56;97076.22;;;4.48;100.00
22755;BME280;11544;42.020;23.094;2023-11-21T05:38:23;97080.13;;;4.78;100.00
22755;BME280;11544;42.020;23.094;2023-11-21T05:40:49;97079.53;;;4.56;100.00
22755;BME280;11544;42.020;23.094;2023-11-21T05:43:16;97085.41;;;4.67;100.00
22755;BME280;11544;42.020;23.094;2023-11-21T05:45:44;97082.19;;;4.53;100.00
22755;BME280;11544;42.020;23.094;2023-11-21T05:48:11;97082.34;;;5.01;100.00
22755;BME280;11544;42.020;23.094;2023-11-21T05:50:38;97082.34;;;5.01;100.00
22755;BME280;11544;42.020;23.094;2023-11-21T05:53:05;97079.78;;;5.01;100.00
22755;BME280;11544;42.020;23.094;2023-11-21T05:55:32;97087.81;;;4.79;100.00
22755;BME280;11544;42.020;23.094;2023-11-21T05:57:59;97080.72;;;4.95;100.00
22755;BME280;11544;42.020;23.094;2023-11-21T06:00:26;97084.44;;;4.76;100.00
22755;BME280;11544;42.020;23.094;2023-11-21T06:02:54;97066.63;;;5.15;100.00
22755;BME280;11544;42.020;23.094;2023-11-21T06:05:23;97073.84;;;5.45;100.00
22755;BME280;11544;42.020;23.094;2023-11-21T06:07:54;97083.19;;;5.54;100.00
22755;BME280;11544;42.020;23.094;2023-11-21T06:10:26;97078.97;;;5.98;100.00
22755;BME280;11544;42.020;23.094;2023-11-21T06:12:55;97086.81;;;5.44;100.00
22755;BME280;11544;42.020;23.094;2023-11-21T06:15:29;97089.72;;;5.24;100.00
22755;BME280;11544;42.020;23.094;2023-11-21T06:17:56;97093.34;;;5.14;100.00
22755;BME280;11544;42.020;23.094;2023-11-21T06:20:22;97090.84;;;6.08;100.00
22755;BME280;11544;42.020;23.094;2023-11-21T06:22:51;97093.44;;;6.07;100.00
22755;BME280;11544;42.020;23.094;2023-11-21T06:25:18;97103.25;;;5.40;100.00
22755;BME280;11544;42.020;23.094;2023-11-21T06:27:47;97100.09;;;5.73;100.00
22755;BME280;11544;42.020;23.094;2023-11-21T06:30:15;97093.00;;;6.31;100.00
22755;BME280;11544;42.020;23.094;2023-11-21T06:32:42;97099.91;;;6.31;100.00
22755;BME280;11544;42.020;23.094;2023-11-21T06:35:29;97083.28;;;6.41;100.00
22755;BME280;11544;42.020;23.094;2023-11-21T06:38:01;97086.59;;;6.87;100.00
22755;BME280;11544;42.020;23.094;2023-11-21T06:40:30;97084.97;;;6.44;100.00
22755;BME280;11544;42.020;23.094;2023-11-21T06:42:57;97088.53;;;5.93;100.00
22755;BME280;11544;42.020;23.094;2023-11-21T06:45:30;97083.19;;;6.46;100.00
22755;BME280;11544;42.020;23.094;2023-11-21T06:48:04;97086.66;;;6.03;100.00
22755;BME280;11544;42.020;23.094;2023-11-21T06:50:41;97086.66;;;6.03;100.00
22755;BME280;11544;42.020;23.094;2023-11-21T06:53:12;97087.72;;;7.48;100.00
22755;BME280;11544;42.020;23.094;2023-11-21T06:55:46;97067.56;;;7.92;100.00
22755;BME280;11544;42.020;23.094;2023-11-21T06:58:19;97082.13;;;7.31;100.00
22755;BME280;11544;42.020;23.094;2023-11-21T07:00:56;97084.13;;;7.19;100.00
22755;BME280;11544;42.020;23.094;2023-11-21T07:03:25;97067.59;;;7.58;100.00
22755;BME280;11544;42.020;23.094;2023-11-21T07:05:53;97070.19;;;8.22;99.88
22755;BME280;11544;42.020;23.094;2023-11-21T07:08:20;97063.91;;;7.68;98.32
22755;BME280;11544;42.020;23.094;2023-11-21T07:10:47;97078.47;;;7.39;99.47
22755;BME280;11544;42.020;23.094;2023-11-21T07:13:14;97072.63;;;7.64;100.00
22755;BME280;11544;42.020;23.094;2023-11-21T07:15:41;97071.13;;;8.19;99.64
22755;BME280;11544;42.020;23.094;2023-11-21T07:18:08;97070.28;;;8.50;97.16
22755;BME280;11544;42.020;23.094;2023-11-21T07:20:47;97068.25;;;8.89;96.15
22755;BME280;11544;42.020;23.094;2023-11-21T07:23:17;97077.44;;;8.72;92.13
22755;BME280;11544;42.020;23.094;2023-11-21T07:26:02;97088.16;;;7.98;97.46
22755;BME280;11544;42.020;23.094;2023-11-21T07:39:03;97094.13;;;9.21;96.29
22755;BME280;11544;42.020;23.094;2023-11-21T07:41:30;97095.84;;;9.22;95.04
22755;BME280;11544;42.020;23.094;2023-11-21T07:43:58;97095.53;;;8.46;99.97
22755;BME280;11544;42.020;23.094;2023-11-21T07:46:26;97103.09;;;8.21;100.00
22755;BME280;11544;42.020;23.094;2023-11-21T07:48:54;97094.13;;;8.33;100.00
22755;BME280;11544;42.020;23.094;2023-11-21T07:51:21;97102.97;;;8.57;100.00
22755;BME280;11544;42.020;23.094;2023-11-21T07:53:48;97099.94;;;8.73;100.00
22755;BME280;11544;42.020;23.094;2023-11-21T07:56:18;97103.53;;;8.98;100.00
22755;BME280;11544;42.020;23.094;2023-11-21T07:58:45;97101.34;;;8.55;100.00
22755;BME280;11544;42.020;23.094;2023-11-21T08:01:12;97114.75;;;8.08;100.00
22755;BME280;11544;42.020;23.094;2023-11-21T08:03:39;97102.63;;;8.40;100.00
22755;BME280;11544;42.020;23.094;2023-11-21T08:06:06;97097.50;;;8.05;100.00
22755;BME280;11544;42.020;23.094;2023-11-21T08:08:36;97095.69;;;9.26;100.00
22755;BME280;11544;42.020;23.094;2023-11-21T08:11:03;97096.28;;;9.08;99.77
22755;BME280;11544;42.020;23.094;2023-11-21T08:13:30;97104.81;;;8.55;100.00
22755;BME280;11544;42.020;23.094;2023-11-21T08:15:58;97094.78;;;9.01;100.00
22755;BME280;11544;42.020;23.094;2023-11-21T08:18:32;97092.56;;;9.43;100.00
22755;BME280;11544;42.020;23.094;2023-11-21T08:20:59;97098.97;;;8.77;100.00
22755;BME280;11544;42.020;23.094;2023-11-21T08:23:27;97106.44;;;8.26;100.00
22755;BME280;11544;42.020;23.094;2023-11-21T08:25:55;97101.13;;;8.62;100.00
22755;BME280;11544;42.020;23.094;2023-11-21T08:28:22;97105.44;;;8.62;100.00
22755;BME280;11544;42.020;23.094;2023-11-21T08:30:50;97100.19;;;8.65;100.00
22755;BME280;11544;42.020;23.094;2023-11-21T08:33:17;97107.81;;;8.09;100.00
22755;BME280;11544;42.020;23.094;2023-11-21T08:35:44;97112.72;;;7.87;100.00
22755;BME280;11544;42.020;23.094;2023-11-21T08:38:12;97101.88;;;8.03;100.00
22755;BME280;11544;42.020;23.094;2023-11-21T08:40:40;97101.94;;;8.00;100.00
22755;BME280;11544;42.020;23.094;2023-11-21T08:43:06;97095.16;;;7.96;100.00
22755;BME280;11544;42.020;23.094;2023-11-21T08:45:34;97101.06;;;8.33;100.00
22755;BME280;11544;42.020;23.094;2023-11-21T08:48:02;97088.47;;;8.19;100.00
22755;BME280;11544;42.020;23.094;2023-11-21T08:50:29;97088.97;;;8.00;100.00
22755;BME280;11544;42.020;23.094;2023-11-21T08:52:56;97082.91;;;8.01;100.00
22755;BME280;11544;42.020;23.094;2023-11-21T08:55:23;97072.75;;;7.94;100.00
22755;BME280;11544;42.020;23.094;2023-11-21T08:57:50;97070.63;;;8.38;100.00
22755;BME280;11544;42.020;23.094;2023-11-21T09:00:17;97078.91;;;7.90;100.00
22755;BME280;11544;42.020;23.094;2023-11-21T09:02:45;97075.34;;;8.23;100.00
22755;BME280;11544;42.020;23.094;2023-11-21T09:05:13;97065.31;;;8.11;100.00
22755;BME280;11544;42.020;23.094;2023-11-21T09:07:41;97050.69;;;8.09;100.00
22755;BME280;11544;42.020;23.094;2023-11-21T09:10:09;97030.28;;;7.96;100.00
22755;BME280;11544;42.020;23.094;2023-11-21T09:12:37;97001.75;;;8.54;100.00
22755;BME280;11544;42.020;23.094;2023-11-21T09:15:06;96984.69;;;8.45;100.00
22755;BME280;11544;42.020;23.094;2023-11-21T09:17:33;96985.38;;;8.22;100.00
22755;BME280;11544;42.020;23.094;2023-11-21T09:20:01;96992.28;;;8.53;100.00
22755;BME280;11544;42.020;23.094;2023-11-21T09:22:30;96976.50;;;9.13;100.00
22755;BME280;11544;42.020;23.094;2023-11-21T09:24:58;96969.78;;;9.32;100.00
22755;BME280;11544;42.020;23.094;2023-11-21T09:27:25;96966.66;;;8.69;100.00
22755;BME280;11544;42.020;23.094;2023-11-21T09:29:54;96958.56;;;9.05;100.00
22755;BME280;11544;42.020;23.094;2023-11-21T09:32:22;96942.78;;;9.36;100.00
22755;BME280;11544;42.020;23.094;2023-11-21T09:34:49;96946.56;;;9.76;97.65
22755;BME280;11544;42.020;23.094;2023-11-21T09:37:17;96930.06;;;10.89;100.00
22755;BME280;11544;42.020;23.094;2023-11-21T09:39:45;96925.13;;;11.44;96.16
22755;BME280;11544;42.020;23.094;2023-11-21T09:47:38;96891.84;;;8.52;100.00
22755;BME280;11544;42.020;23.094;2023-11-21T09:50:06;96892.59;;;8.82;100.00
22755;BME280;11544;42.020;23.094;2023-11-21T09:53:25;96883.06;;;9.08;100.00
22755;BME280;11544;42.020;23.094;2023-11-21T09:55:34;96882.88;;;8.62;100.00
22755;BME280;11544;42.020;23.094;2023-11-21T09:58:05;96888.66;;;9.46;100.00
22755;BME280;11544;42.020;23.094;2023-11-21T10:00:43;96885.31;;;9.66;100.00
22755;BME280;11544;42.020;23.094;2023-11-21T10:03:11;96880.44;;;9.80;98.27
22755;BME280;11544;42.020;23.094;2023-11-21T10:05:39;96872.25;;;9.19;100.00
22755;BME280;11544;42.020;23.094;2023-11-21T10:08:11;96872.09;;;9.23;100.00
22755;BME280;11544;42.020;23.094;2023-11-21T10:10:44;96862.00;;;9.39;100.00
22755;BME280;11544;42.020;23.094;2023-11-21T10:13:13;96867.91;;;8.69;100.00
22755;BME280;11544;42.020;23.094;2023-11-21T10:15:44;96866.41;;;9.37;100.00
22755;BME280;11544;42.020;23.094;2023-11-21T10:18:16;96868.63;;;8.99;100.00
22755;BME280;11544;42.020;23.094;2023-11-21T10:20:43;96859.22;;;8.95;100.00
22755;BME280;11544;42.020;23.094;2023-11-21T10:23:13;96860.31;;;8.88;100.00
22755;BME280;11544;42.020;23.094;2023-11-21T10:25:41;96862.63;;;9.22;100.00
22755;BME280;11544;42.020;23.094;2023-11-21T10:28:09;96848.66;;;9.00;100.00
22755;BME280;11544;42.020;23.094;2023-11-21T10:30:38;96853.50;;;9.59;100.00
22755;BME280;11544;42.020;23.094;2023-11-21T10:33:06;96843.91;;;9.13;100.00
22755;BME280;11544;42.020;23.094;2023-11-21T10:38:08;96841.31;;;9.60;100.00
22755;BME280;11544;42.020;23.094;2023-11-21T10:40:40;96841.41;;;9.57;100.00
22755;BME280;11544;42.020;23.094;2023-11-21T10:43:09;96847.53;;;9.79;100.00
22755;BME280;11544;42.020;23.094;2023-11-21T10:45:37;96854.00;;;9.69;99.72
22755;BME280;11544;42.020;23.094;2023-11-21T10:48:09;96844.22;;;9.98;99.26
22755;BME280;11544;42.020;23.094;2023-11-21T10:50:37;96838.25;;;9.72;98.98
22755;BME280;11544;42.020;23.094;2023-11-21T10:53:05;96831.69;;;9.85;98.50
22755;BME280;11544;42.020;23.094;2023-11-21T10:55:33;96821.44;;;10.03;100.00
22755;BME280;11544;42.020;23.094;2023-11-21T10:58:04;96810.66;;;10.12;98.18
22755;BME280;11544;42.020;23.094;2023-11-21T11:00:33;96807.13;;;10.57;96.15
22755;BME280;11544;42.020;23.094;2023-11-21T11:03:00;96802.88;;;10.54;97.04
22755;BME280;11544;42.020;23.094;2023-11-21T11:05:29;96790.16;;;10.04;98.20
22755;BME280;11544;42.020;23.094;2023-11-21T11:08:00;96785.88;;;10.87;95.70
22755;BME280;11544;42.020;23.094;2023-11-21T11:10:31;96783.50;;;9.97;98.30
22755;BME280;11544;42.020;23.094;2023-11-21T11:12:59;96779.81;;;10.45;98.50
22755;BME280;11544;42.020;23.094;2023-11-21T11:15:27;96768.81;;;11.38;94.53
22755;BME280;11544;42.020;23.094;2023-11-21T11:17:55;96760.56;;;11.66;88.04
22755;BME280;11544;42.020;23.094;2023-11-21T11:20:30;96757.44;;;11.96;85.52
22755;BME280;11544;42.020;23.094;2023-11-21T11:28:43;96746.84;;;12.16;84.04
22755;BME280;11544;42.020;23.094;2023-11-21T11:37:00;96738.75;;;11.86;87.15
22755;BME280;11544;42.020;23.094;2023-11-21T11:39:28;96742.78;;;12.28;84.92
22755;BME280;11544;42.020;23.094;2023-11-21T11:42:02;96735.28;;;12.39;83.85
22755;BME280;11544;42.020;23.094;2023-11-21T11:52:52;96714.16;;;12.26;81.65
22755;BME280;11544;42.020;23.094;2023-11-21T11:55:23;96706.13;;;12.98;78.21
22755;BME280;11544;42.020;23.094;2023-11-21T11:57:52;96693.31;;;13.09;77.15
22755;BME280;11544;42.020;23.094;2023-11-21T12:00:22;96689.03;;;12.75;79.78
22755;BME280;11544;42.020;23.094;2023-11-21T12:03:02;96683.97;;;13.21;78.49
22755;BME280;11544;42.020;23.094;2023-11-21T12:05:35;96688.34;;;13.04;78.23
22755;BME280;11544;42.020;23.094;2023-11-21T12:08:06;96676.13;;;12.71;78.97
22755;BME280;11544;42.020;23.094;2023-11-21T12:10:36;96678.63;;;13.06;79.51
22755;BME280;11544;42.020;23.094;2023-11-21T12:13:06;96684.00;;;12.87;81.93
22755;BME280;11544;42.020;23.094;2023-11-21T12:15:37;96691.16;;;12.84;81.14
22755;BME280;11544;42.020;23.094;2023-11-21T12:18:06;96678.03;;;12.68;81.61
22755;BME280;11544;42.020;23.094;2023-11-21T12:20:33;96679.56;;;12.72;82.22
22755;BME280;11544;42.020;23.094;2023-11-21T12:23:06;96673.75;;;12.67;82.36
22755;BME280;11544;42.020;23.094;2023-11-21T12:25:36;96677.75;;;12.90;81.59
22755;BME280;11544;42.020;23.094;2023-11-21T12:28:03;96669.75;;;12.93;82.47
22755;BME280;11544;42.020;23.094;2023-11-21T12:30:33;96669.16;;;13.04;81.27
22755;BME280;11544;42.020;23.094;2023-11-21T12:33:02;96669.69;;;12.77;82.83
22755;BME280;11544;42.020;23.094;2023-11-21T12:35:32;96668.03;;;12.59;83.89
22755;BME280;11544;42.020;23.094;2023-11-21T12:38:03;96664.22;;;12.82;83.97
22755;BME280;11544;42.020;23.094;2023-11-21T12:40:30;96667.81;;;12.63;84.82
22755;BME280;11544;42.020;23.094;2023-11-21T12:42:59;96667.84;;;12.79;85.87
22755;BME280;11544;42.020;23.094;2023-11-21T12:45:28;96663.56;;;12.78;84.36
22755;BME280;11544;42.020;23.094;2023-11-21T12:47:57;96655.72;;;12.45;88.40
22755;BME280;11544;42.020;23.094;2023-11-21T12:50:28;96645.81;;;12.67;88.31
22755;BME280;11544;42.020;23.094;2023-11-21T12:53:03;96646.00;;;12.80;86.20
22755;BME280;11544;42.020;23.094;2023-11-21T12:55:32;96633.63;;;13.16;82.47
22755;BME280;11544;42.020;23.094;2023-11-21T12:58:01;96627.13;;;13.23;80.21
22755;BME280;11544;42.020;23.094;2023-11-21T13:00:44;96620.41;;;13.34;77.81
22755;BME280;11544;42.020;23.094;2023-11-21T13:03:15;96617.75;;;13.66;74.68
22755;BME280;11544;42.020;23.094;2023-11-21T13:05:53;96612.69;;;13.93;71.09
22755;BME280;11544;42.020;23.094;2023-11-21T13:08:22;96609.44;;;14.04;69.72
22755;BME280;11544;42.020;23.094;2023-11-21T13:10:56;96602.88;;;13.97;68.19
22755;BME280;11544;42.020;23.094;2023-11-21T13:13:25;96598.69;;;14.09;68.13
22755;BME280;11544;42.020;23.094;2023-11-21T13:16:02;96603.09;;;14.08;69.13
22755;BME280;11544;42.020;23.094;2023-11-21T13:18:33;96590.75;;;14.10;67.10
22755;BME280;11544;42.020;23.094;2023-11-21T13:21:04;96592.63;;;14.23;65.95
22755;BME280;11544;42.020;23.094;2023-11-21T13:23:41;96590.94;;;14.36;66.38
22755;BME280;11544;42.020;23.094;2023-11-21T13:26:09;96587.47;;;14.35;65.68
22755;BME280;11544;42.020;23.094;2023-11-21T13:28:36;96598.72;;;14.37;65.67
22755;BME280;11544;42.020;23.094;2023-11-21T13:31:05;96598.81;;;14.36;66.17
22755;BME280;11544;42.020;23.094;2023-11-21T13:33:49;96601.97;;;14.12;66.61
22755;BME280;11544;42.020;23.094;2023-11-21T13:36:23;96598.91;;;14.20;67.04
22755;BME280;11544;42.020;23.094;2023-11-21T13:38:51;96609.69;;;14.30;66.28